Main page
METAR-TAF:

METAR-TAF

Airports :

Wattisham Flying Station

Wattisham, England

latitude: 52-07N, longitude: 000-58E, elevation: 87 m

Current weather observation

The report was made 24 minutes ago, at 09:20 UTC
Wind 13 kt from the West
Temperature 27°C
Humidity 58%
Pressure 1011 hPa
Visibility 10 km or more
no clouds below 1500 m and no cumulonimbus

METAR: EGUW 240920Z 26013KT CAVOK 27/18 Q1011 NOSIG RMK BLU BLU

Time: 10:44 (09:44 UTC)

Forecast

The report was made 2 hours and 14 minutes ago, at 07:30 UTC
Forecast valid from 24 at 09 UTC to 24 at 18 UTC
Wind 7 kt from the West/Southwest
Visibility 10 km or more
no clouds below 1500 m and no cumulonimbus

TAF: EGUW 240730Z 2409/2418 24007KT CAVOK

Weather observations and forecasts of more than 4000 airports (METAR and TAF reports).

The available stations are represented by yellow and red dots on the map.

Hover mouse over dot to see the name of the station.

Then click to see weather observations and forecasts.

To change the map : click on the green buttons with a black cross to zoom in, on the green button with a dash to zoom out, or on the green arrows for adjacent maps.


METAR-TAF: